Terminal Aerodrome Forecast
Issued by NWS

Current Version | Previous Version | Text Only | Print | Product List | Glossary Off
Versions: 1 2 3 4 5 6 7 8 9 10 11 12 13 14 15 16 17 18 19 20 21 22

000
FTUS41 KPBZ 280857 AAA
TAFMGW
TAF AMD
KMGW 280857Z 2809/2906 VRB03KT 2SM BR SCT090
      TEMPO 2809/2812 3/4SM BR VV002
     FM281200 20003KT P6SM SCT250
     FM282300 18005KT P6SM BKN120=

USA.gov is the U.S. government's official web portal to all federal, state and local government web resources and services.